sensor_id;sensor_type;location;lat;lon;timestamp;P1;durP1;ratioP1;P2;durP2;ratioP2
32611;SDS011;19030;49.478;8.986;2022-12-29T00:00:25;13.35;;;5.57;;
32611;SDS011;19030;49.478;8.986;2022-12-29T00:02:25;12.88;;;5.78;;
32611;SDS011;19030;49.478;8.986;2022-12-29T00:04:26;13.45;;;6.03;;
32611;SDS011;19030;49.478;8.986;2022-12-29T00:06:27;12.52;;;5.72;;
32611;SDS011;19030;49.478;8.986;2022-12-29T00:08:28;11.95;;;5.18;;
32611;SDS011;19030;49.478;8.986;2022-12-29T00:10:41;9.45;;;4.75;;
32611;SDS011;19030;49.478;8.986;2022-12-29T00:12:41;11.00;;;4.35;;
32611;SDS011;19030;49.478;8.986;2022-12-29T00:15:01;9.52;;;4.32;;
32611;SDS011;19030;49.478;8.986;2022-12-29T00:17:20;6.78;;;3.45;;
32611;SDS011;19030;49.478;8.986;2022-12-29T00:19:21;11.18;;;3.30;;
32611;SDS011;19030;49.478;8.986;2022-12-29T00:21:40;7.03;;;3.30;;
32611;SDS011;19030;49.478;8.986;2022-12-29T00:23:59;6.18;;;2.83;;
32611;SDS011;19030;49.478;8.986;2022-12-29T00:26:18;8.23;;;3.20;;
32611;SDS011;19030;49.478;8.986;2022-12-29T00:28:38;8.43;;;3.45;;
32611;SDS011;19030;49.478;8.986;2022-12-29T00:31:00;6.43;;;3.30;;
32611;SDS011;19030;49.478;8.986;2022-12-29T00:33:20;7.25;;;3.83;;
32611;SDS011;19030;49.478;8.986;2022-12-29T00:35:52;7.43;;;3.35;;
32611;SDS011;19030;49.478;8.986;2022-12-29T00:37:57;8.07;;;3.60;;
32611;SDS011;19030;49.478;8.986;2022-12-29T00:40:33;8.32;;;3.33;;
32611;SDS011;19030;49.478;8.986;2022-12-29T00:42:52;6.70;;;3.15;;
32611;SDS011;19030;49.478;8.986;2022-12-29T00:45:25;7.22;;;3.33;;
32611;SDS011;19030;49.478;8.986;2022-12-29T00:47:25;6.50;;;2.78;;
32611;SDS011;19030;49.478;8.986;2022-12-29T00:49:26;9.52;;;3.25;;
32611;SDS011;19030;49.478;8.986;2022-12-29T00:53:33;7.13;;;3.30;;
32611;SDS011;19030;49.478;8.986;2022-12-29T00:55:37;7.72;;;3.33;;
32611;SDS011;19030;49.478;8.986;2022-12-29T00:57:38;7.93;;;3.33;;
32611;SDS011;19030;49.478;8.986;2022-12-29T00:59:39;7.68;;;3.45;;
32611;SDS011;19030;49.478;8.986;2022-12-29T01:01:40;6.38;;;2.92;;
32611;SDS011;19030;49.478;8.986;2022-12-29T01:03:41;7.03;;;3.15;;
32611;SDS011;19030;49.478;8.986;2022-12-29T01:05:42;7.53;;;3.38;;
32611;SDS011;19030;49.478;8.986;2022-12-29T01:07:43;6.95;;;3.10;;
32611;SDS011;19030;49.478;8.986;2022-12-29T01:09:43;7.00;;;2.75;;
32611;SDS011;19030;49.478;8.986;2022-12-29T01:12:03;8.32;;;2.97;;
32611;SDS011;19030;49.478;8.986;2022-12-29T01:14:05;5.03;;;2.38;;
32611;SDS011;19030;49.478;8.986;2022-12-29T01:16:06;6.97;;;3.17;;
32611;SDS011;19030;49.478;8.986;2022-12-29T01:18:08;7.97;;;3.00;;
32611;SDS011;19030;49.478;8.986;2022-12-29T01:20:09;7.15;;;3.08;;
32611;SDS011;19030;49.478;8.986;2022-12-29T01:22:10;10.55;;;4.20;;
32611;SDS011;19030;49.478;8.986;2022-12-29T01:24:11;6.55;;;3.00;;
32611;SDS011;19030;49.478;8.986;2022-12-29T01:26:12;7.00;;;3.05;;
32611;SDS011;19030;49.478;8.986;2022-12-29T01:28:13;5.97;;;3.10;;
32611;SDS011;19030;49.478;8.986;2022-12-29T01:30:14;6.80;;;3.10;;
32611;SDS011;19030;49.478;8.986;2022-12-29T01:32:15;7.35;;;2.83;;
32611;SDS011;19030;49.478;8.986;2022-12-29T01:34:15;7.82;;;2.75;;
32611;SDS011;19030;49.478;8.986;2022-12-29T01:36:16;7.50;;;3.17;;
32611;SDS011;19030;49.478;8.986;2022-12-29T01:38:17;7.65;;;3.58;;
32611;SDS011;19030;49.478;8.986;2022-12-29T01:40:18;7.85;;;3.60;;
32611;SDS011;19030;49.478;8.986;2022-12-29T01:42:21;5.80;;;3.03;;
32611;SDS011;19030;49.478;8.986;2022-12-29T01:46:46;7.95;;;3.00;;
32611;SDS011;19030;49.478;8.986;2022-12-29T01:48:49;6.00;;;2.65;;
32611;SDS011;19030;49.478;8.986;2022-12-29T01:50:53;7.38;;;2.70;;
32611;SDS011;19030;49.478;8.986;2022-12-29T01:52:55;7.60;;;3.10;;
32611;SDS011;19030;49.478;8.986;2022-12-29T01:55:00;7.25;;;3.33;;
32611;SDS011;19030;49.478;8.986;2022-12-29T01:57:04;5.38;;;2.72;;
32611;SDS011;19030;49.478;8.986;2022-12-29T01:59:12;6.63;;;3.70;;
32611;SDS011;19030;49.478;8.986;2022-12-29T02:01:16;11.13;;;2.85;;
32611;SDS011;19030;49.478;8.986;2022-12-29T02:03:19;7.97;;;2.92;;
32611;SDS011;19030;49.478;8.986;2022-12-29T02:05:32;11.13;;;3.20;;
32611;SDS011;19030;49.478;8.986;2022-12-29T02:07:46;6.70;;;2.75;;
32611;SDS011;19030;49.478;8.986;2022-12-29T02:09:48;5.70;;;2.58;;
32611;SDS011;19030;49.478;8.986;2022-12-29T02:11:50;9.27;;;2.67;;
32611;SDS011;19030;49.478;8.986;2022-12-29T02:13:52;8.77;;;3.08;;
32611;SDS011;19030;49.478;8.986;2022-12-29T02:16:00;5.15;;;2.30;;
32611;SDS011;19030;49.478;8.986;2022-12-29T02:18:15;5.28;;;2.78;;
32611;SDS011;19030;49.478;8.986;2022-12-29T02:25:19;6.68;;;2.47;;
32611;SDS011;19030;49.478;8.986;2022-12-29T02:27:43;6.25;;;2.67;;
32611;SDS011;19030;49.478;8.986;2022-12-29T02:35:05;5.18;;;2.42;;
32611;SDS011;19030;49.478;8.986;2022-12-29T02:37:20;6.25;;;2.60;;
32611;SDS011;19030;49.478;8.986;2022-12-29T02:42:00;7.38;;;2.75;;
32611;SDS011;19030;49.478;8.986;2022-12-29T02:44:13;6.00;;;2.50;;
32611;SDS011;19030;49.478;8.986;2022-12-29T02:46:41;5.70;;;2.10;;
32611;SDS011;19030;49.478;8.986;2022-12-29T02:51:03;7.13;;;2.47;;
32611;SDS011;19030;49.478;8.986;2022-12-29T02:53:11;8.07;;;2.80;;
32611;SDS011;19030;49.478;8.986;2022-12-29T02:55:14;6.57;;;3.00;;
32611;SDS011;19030;49.478;8.986;2022-12-29T02:59:22;10.30;;;2.92;;
32611;SDS011;19030;49.478;8.986;2022-12-29T03:11:16;11.38;;;2.88;;
32611;SDS011;19030;49.478;8.986;2022-12-29T03:13:39;6.22;;;2.60;;
32611;SDS011;19030;49.478;8.986;2022-12-29T03:16:21;9.40;;;2.63;;
32611;SDS011;19030;49.478;8.986;2022-12-29T03:18:44;6.25;;;2.50;;
32611;SDS011;19030;49.478;8.986;2022-12-29T03:21:08;6.05;;;2.75;;
32611;SDS011;19030;49.478;8.986;2022-12-29T03:23:14;5.35;;;2.42;;
32611;SDS011;19030;49.478;8.986;2022-12-29T03:27:32;7.65;;;2.83;;
32611;SDS011;19030;49.478;8.986;2022-12-29T03:29:39;6.93;;;2.67;;
32611;SDS011;19030;49.478;8.986;2022-12-29T03:31:43;6.32;;;2.53;;
32611;SDS011;19030;49.478;8.986;2022-12-29T03:33:47;5.68;;;2.70;;
32611;SDS011;19030;49.478;8.986;2022-12-29T03:35:48;10.60;;;2.88;;
32611;SDS011;19030;49.478;8.986;2022-12-29T03:40:20;6.32;;;2.50;;
32611;SDS011;19030;49.478;8.986;2022-12-29T03:42:23;4.65;;;2.25;;
32611;SDS011;19030;49.478;8.986;2022-12-29T03:44:35;5.10;;;2.70;;
32611;SDS011;19030;49.478;8.986;2022-12-29T03:46:38;7.13;;;2.40;;
32611;SDS011;19030;49.478;8.986;2022-12-29T03:48:38;6.25;;;2.50;;
32611;SDS011;19030;49.478;8.986;2022-12-29T03:50:39;7.60;;;2.58;;
32611;SDS011;19030;49.478;8.986;2022-12-29T03:52:40;5.68;;;2.40;;
32611;SDS011;19030;49.478;8.986;2022-12-29T03:54:41;5.10;;;2.20;;
32611;SDS011;19030;49.478;8.986;2022-12-29T03:56:42;5.65;;;2.80;;
32611;SDS011;19030;49.478;8.986;2022-12-29T03:58:42;8.55;;;2.53;;
32611;SDS011;19030;49.478;8.986;2022-12-29T04:00:51;6.00;;;2.58;;
32611;SDS011;19030;49.478;8.986;2022-12-29T04:02:52;8.98;;;2.67;;
32611;SDS011;19030;49.478;8.986;2022-12-29T04:04:54;6.88;;;2.40;;
32611;SDS011;19030;49.478;8.986;2022-12-29T04:06:56;6.72;;;2.50;;
32611;SDS011;19030;49.478;8.986;2022-12-29T04:08:57;6.20;;;2.50;;
32611;SDS011;19030;49.478;8.986;2022-12-29T04:10:59;11.55;;;3.13;;
32611;SDS011;19030;49.478;8.986;2022-12-29T04:13:01;6.07;;;2.60;;
32611;SDS011;19030;49.478;8.986;2022-12-29T04:15:01;6.82;;;2.50;;
32611;SDS011;19030;49.478;8.986;2022-12-29T04:17:03;8.98;;;2.50;;
32611;SDS011;19030;49.478;8.986;2022-12-29T04:19:05;5.65;;;2.67;;
32611;SDS011;19030;49.478;8.986;2022-12-29T04:21:07;7.80;;;2.50;;
32611;SDS011;19030;49.478;8.986;2022-12-29T04:23:09;6.38;;;2.60;;
32611;SDS011;19030;49.478;8.986;2022-12-29T04:25:11;10.80;;;4.00;;
32611;SDS011;19030;49.478;8.986;2022-12-29T04:27:12;6.45;;;2.30;;
32611;SDS011;19030;49.478;8.986;2022-12-29T04:29:31;5.93;;;2.30;;
32611;SDS011;19030;49.478;8.986;2022-12-29T04:31:58;10.48;;;4.22;;
32611;SDS011;19030;49.478;8.986;2022-12-29T04:33:59;6.78;;;2.70;;
32611;SDS011;19030;49.478;8.986;2022-12-29T04:36:00;9.82;;;2.80;;
32611;SDS011;19030;49.478;8.986;2022-12-29T04:38:01;5.75;;;2.70;;
32611;SDS011;19030;49.478;8.986;2022-12-29T04:40:03;6.43;;;2.80;;
32611;SDS011;19030;49.478;8.986;2022-12-29T04:42:04;6.65;;;2.78;;
32611;SDS011;19030;49.478;8.986;2022-12-29T04:44:05;5.80;;;2.85;;
32611;SDS011;19030;49.478;8.986;2022-12-29T04:46:38;6.38;;;2.53;;
32611;SDS011;19030;49.478;8.986;2022-12-29T04:48:43;5.25;;;2.40;;
32611;SDS011;19030;49.478;8.986;2022-12-29T04:50:57;3.50;;;1.88;;
32611;SDS011;19030;49.478;8.986;2022-12-29T04:52:59;6.07;;;2.30;;
32611;SDS011;19030;49.478;8.986;2022-12-29T04:55:00;6.85;;;2.25;;
32611;SDS011;19030;49.478;8.986;2022-12-29T04:57:01;5.50;;;2.28;;
32611;SDS011;19030;49.478;8.986;2022-12-29T04:59:03;7.97;;;2.47;;
32611;SDS011;19030;49.478;8.986;2022-12-29T05:01:05;5.20;;;2.00;;
32611;SDS011;19030;49.478;8.986;2022-12-29T05:03:06;9.20;;;2.60;;
32611;SDS011;19030;49.478;8.986;2022-12-29T05:05:12;7.13;;;2.33;;
32611;SDS011;19030;49.478;8.986;2022-12-29T05:07:16;5.63;;;2.17;;
32611;SDS011;19030;49.478;8.986;2022-12-29T05:09:18;6.32;;;2.22;;
32611;SDS011;19030;49.478;8.986;2022-12-29T05:11:19;4.75;;;2.20;;
32611;SDS011;19030;49.478;8.986;2022-12-29T05:13:22;6.28;;;2.00;;
32611;SDS011;19030;49.478;8.986;2022-12-29T05:15:23;3.97;;;2.20;;
32611;SDS011;19030;49.478;8.986;2022-12-29T05:17:24;6.03;;;2.50;;
32611;SDS011;19030;49.478;8.986;2022-12-29T05:19:25;5.85;;;2.10;;
32611;SDS011;19030;49.478;8.986;2022-12-29T05:21:25;4.63;;;2.00;;
32611;SDS011;19030;49.478;8.986;2022-12-29T05:23:26;5.20;;;2.25;;
32611;SDS011;19030;49.478;8.986;2022-12-29T05:25:32;4.13;;;2.00;;
32611;SDS011;19030;49.478;8.986;2022-12-29T05:27:46;5.38;;;2.30;;
32611;SDS011;19030;49.478;8.986;2022-12-29T05:30:13;9.30;;;2.30;;
32611;SDS011;19030;49.478;8.986;2022-12-29T05:32:14;4.43;;;1.90;;
32611;SDS011;19030;49.478;8.986;2022-12-29T05:34:16;4.68;;;2.20;;
32611;SDS011;19030;49.478;8.986;2022-12-29T05:36:17;3.47;;;2.00;;
32611;SDS011;19030;49.478;8.986;2022-12-29T05:38:22;5.32;;;2.25;;
32611;SDS011;19030;49.478;8.986;2022-12-29T05:40:23;4.30;;;2.08;;
32611;SDS011;19030;49.478;8.986;2022-12-29T05:42:28;4.50;;;2.35;;
32611;SDS011;19030;49.478;8.986;2022-12-29T05:44:47;5.32;;;2.30;;
32611;SDS011;19030;49.478;8.986;2022-12-29T05:47:19;4.20;;;2.40;;
32611;SDS011;19030;49.478;8.986;2022-12-29T05:49:39;4.70;;;2.00;;
32611;SDS011;19030;49.478;8.986;2022-12-29T05:51:53;4.25;;;2.20;;
32611;SDS011;19030;49.478;8.986;2022-12-29T05:53:53;6.03;;;2.20;;
32611;SDS011;19030;49.478;8.986;2022-12-29T05:55:55;5.65;;;2.33;;
32611;SDS011;19030;49.478;8.986;2022-12-29T05:57:56;5.72;;;2.33;;
32611;SDS011;19030;49.478;8.986;2022-12-29T05:59:57;7.57;;;2.88;;
32611;SDS011;19030;49.478;8.986;2022-12-29T06:01:57;6.82;;;2.10;;
32611;SDS011;19030;49.478;8.986;2022-12-29T06:03:58;7.32;;;2.90;;
32611;SDS011;19030;49.478;8.986;2022-12-29T06:05:59;4.10;;;2.10;;
32611;SDS011;19030;49.478;8.986;2022-12-29T06:08:00;5.57;;;2.30;;
32611;SDS011;19030;49.478;8.986;2022-12-29T06:10:01;6.75;;;2.90;;
32611;SDS011;19030;49.478;8.986;2022-12-29T06:12:06;4.65;;;2.05;;
32611;SDS011;19030;49.478;8.986;2022-12-29T06:14:07;7.57;;;2.33;;
32611;SDS011;19030;49.478;8.986;2022-12-29T06:16:08;5.40;;;2.25;;
32611;SDS011;19030;49.478;8.986;2022-12-29T06:18:11;5.63;;;2.63;;
32611;SDS011;19030;49.478;8.986;2022-12-29T06:20:12;5.55;;;3.00;;
32611;SDS011;19030;49.478;8.986;2022-12-29T06:22:12;5.47;;;2.33;;
32611;SDS011;19030;49.478;8.986;2022-12-29T06:24:15;5.40;;;2.50;;
32611;SDS011;19030;49.478;8.986;2022-12-29T06:26:15;7.18;;;2.10;;
32611;SDS011;19030;49.478;8.986;2022-12-29T06:28:16;5.93;;;2.58;;
32611;SDS011;19030;49.478;8.986;2022-12-29T06:30:17;7.50;;;2.95;;
32611;SDS011;19030;49.478;8.986;2022-12-29T06:32:18;8.43;;;2.13;;
32611;SDS011;19030;49.478;8.986;2022-12-29T06:34:24;10.15;;;2.70;;
32611;SDS011;19030;49.478;8.986;2022-12-29T06:36:25;3.72;;;2.00;;
32611;SDS011;19030;49.478;8.986;2022-12-29T06:38:25;6.72;;;2.40;;
32611;SDS011;19030;49.478;8.986;2022-12-29T06:40:26;4.20;;;2.08;;
32611;SDS011;19030;49.478;8.986;2022-12-29T06:42:49;5.03;;;2.10;;
32611;SDS011;19030;49.478;8.986;2022-12-29T06:45:19;6.18;;;2.33;;
32611;SDS011;19030;49.478;8.986;2022-12-29T06:47:19;8.85;;;2.83;;
32611;SDS011;19030;49.478;8.986;2022-12-29T06:49:20;6.63;;;2.67;;
32611;SDS011;19030;49.478;8.986;2022-12-29T06:51:21;5.50;;;2.50;;
32611;SDS011;19030;49.478;8.986;2022-12-29T06:53:21;7.28;;;3.45;;
32611;SDS011;19030;49.478;8.986;2022-12-29T06:55:22;5.05;;;2.45;;
32611;SDS011;19030;49.478;8.986;2022-12-29T06:57:22;5.25;;;2.50;;
32611;SDS011;19030;49.478;8.986;2022-12-29T06:59:23;5.82;;;2.60;;
32611;SDS011;19030;49.478;8.986;2022-12-29T07:01:24;6.10;;;2.40;;
32611;SDS011;19030;49.478;8.986;2022-12-29T07:03:25;4.32;;;2.17;;
32611;SDS011;19030;49.478;8.986;2022-12-29T07:05:26;6.78;;;2.65;;
32611;SDS011;19030;49.478;8.986;2022-12-29T07:07:27;5.10;;;2.55;;
32611;SDS011;19030;49.478;8.986;2022-12-29T07:09:28;4.40;;;2.25;;
32611;SDS011;19030;49.478;8.986;2022-12-29T07:11:28;4.47;;;2.42;;
32611;SDS011;19030;49.478;8.986;2022-12-29T07:13:29;5.55;;;2.40;;
32611;SDS011;19030;49.478;8.986;2022-12-29T07:15:29;4.97;;;2.60;;
32611;SDS011;19030;49.478;8.986;2022-12-29T07:17:30;5.82;;;2.20;;
32611;SDS011;19030;49.478;8.986;2022-12-29T07:19:31;8.75;;;2.60;;
32611;SDS011;19030;49.478;8.986;2022-12-29T07:21:32;5.78;;;2.63;;
32611;SDS011;19030;49.478;8.986;2022-12-29T07:23:32;7.60;;;2.33;;
32611;SDS011;19030;49.478;8.986;2022-12-29T07:25:33;5.88;;;2.60;;
32611;SDS011;19030;49.478;8.986;2022-12-29T07:27:35;6.20;;;2.55;;
32611;SDS011;19030;49.478;8.986;2022-12-29T07:29:37;4.60;;;2.40;;
32611;SDS011;19030;49.478;8.986;2022-12-29T07:31:38;4.43;;;2.50;;
32611;SDS011;19030;49.478;8.986;2022-12-29T07:33:38;6.07;;;2.53;;
32611;SDS011;19030;49.478;8.986;2022-12-29T07:35:39;9.60;;;2.63;;
32611;SDS011;19030;49.478;8.986;2022-12-29T07:37:40;5.60;;;2.78;;
32611;SDS011;19030;49.478;8.986;2022-12-29T07:39:40;5.60;;;2.63;;
32611;SDS011;19030;49.478;8.986;2022-12-29T07:41:41;9.77;;;2.75;;
32611;SDS011;19030;49.478;8.986;2022-12-29T07:43:48;3.75;;;2.17;;
32611;SDS011;19030;49.478;8.986;2022-12-29T07:46:18;4.28;;;2.25;;
32611;SDS011;19030;49.478;8.986;2022-12-29T07:48:18;5.68;;;2.35;;
32611;SDS011;19030;49.478;8.986;2022-12-29T07:50:19;5.72;;;2.50;;
32611;SDS011;19030;49.478;8.986;2022-12-29T07:52:20;6.25;;;2.38;;
32611;SDS011;19030;49.478;8.986;2022-12-29T07:54:20;9.57;;;2.85;;
32611;SDS011;19030;49.478;8.986;2022-12-29T07:56:22;5.07;;;2.50;;
32611;SDS011;19030;49.478;8.986;2022-12-29T07:58:23;7.25;;;3.40;;
32611;SDS011;19030;49.478;8.986;2022-12-29T08:00:23;7.65;;;3.10;;
32611;SDS011;19030;49.478;8.986;2022-12-29T08:02:25;9.82;;;5.50;;
32611;SDS011;19030;49.478;8.986;2022-12-29T08:04:26;8.65;;;3.20;;
32611;SDS011;19030;49.478;8.986;2022-12-29T08:06:26;6.60;;;2.50;;
32611;SDS011;19030;49.478;8.986;2022-12-29T08:08:28;7.40;;;3.10;;
32611;SDS011;19030;49.478;8.986;2022-12-29T08:10:29;7.47;;;3.10;;
32611;SDS011;19030;49.478;8.986;2022-12-29T08:12:29;7.53;;;3.08;;
32611;SDS011;19030;49.478;8.986;2022-12-29T08:14:30;5.40;;;2.58;;
32611;SDS011;19030;49.478;8.986;2022-12-29T08:16:30;6.78;;;3.15;;
32611;SDS011;19030;49.478;8.986;2022-12-29T08:18:32;7.70;;;2.97;;
32611;SDS011;19030;49.478;8.986;2022-12-29T08:20:32;5.80;;;2.70;;
32611;SDS011;19030;49.478;8.986;2022-12-29T08:22:33;5.70;;;2.42;;
32611;SDS011;19030;49.478;8.986;2022-12-29T08:24:34;8.57;;;3.17;;
32611;SDS011;19030;49.478;8.986;2022-12-29T08:26:34;8.68;;;3.53;;
32611;SDS011;19030;49.478;8.986;2022-12-29T08:28:35;8.10;;;3.05;;
32611;SDS011;19030;49.478;8.986;2022-12-29T08:30:35;10.68;;;3.00;;
32611;SDS011;19030;49.478;8.986;2022-12-29T08:32:36;11.90;;;6.47;;
32611;SDS011;19030;49.478;8.986;2022-12-29T08:34:37;6.72;;;3.17;;
32611;SDS011;19030;49.478;8.986;2022-12-29T08:36:37;4.82;;;2.50;;
32611;SDS011;19030;49.478;8.986;2022-12-29T08:38:38;7.97;;;3.05;;
32611;SDS011;19030;49.478;8.986;2022-12-29T08:40:38;6.38;;;2.55;;
32611;SDS011;19030;49.478;8.986;2022-12-29T08:42:39;10.15;;;3.45;;
32611;SDS011;19030;49.478;8.986;2022-12-29T08:44:40;5.88;;;2.80;;
32611;SDS011;19030;49.478;8.986;2022-12-29T08:46:40;10.20;;;3.40;;
32611;SDS011;19030;49.478;8.986;2022-12-29T08:48:41;12.75;;;4.55;;
32611;SDS011;19030;49.478;8.986;2022-12-29T08:50:42;8.73;;;3.70;;
32611;SDS011;19030;49.478;8.986;2022-12-29T08:52:43;6.78;;;2.50;;
32611;SDS011;19030;49.478;8.986;2022-12-29T08:54:44;12.73;;;5.45;;
32611;SDS011;19030;49.478;8.986;2022-12-29T08:56:44;7.65;;;3.60;;
32611;SDS011;19030;49.478;8.986;2022-12-29T08:58:47;6.65;;;3.25;;
32611;SDS011;19030;49.478;8.986;2022-12-29T09:00:47;6.15;;;3.47;;
32611;SDS011;19030;49.478;8.986;2022-12-29T09:02:48;7.40;;;3.15;;
32611;SDS011;19030;49.478;8.986;2022-12-29T09:04:49;7.18;;;2.72;;
32611;SDS011;19030;49.478;8.986;2022-12-29T09:06:49;6.82;;;3.17;;
32611;SDS011;19030;49.478;8.986;2022-12-29T09:08:50;9.15;;;5.82;;
32611;SDS011;19030;49.478;8.986;2022-12-29T09:10:51;11.82;;;8.13;;
32611;SDS011;19030;49.478;8.986;2022-12-29T09:12:51;8.63;;;5.07;;
32611;SDS011;19030;49.478;8.986;2022-12-29T09:14:52;8.82;;;3.55;;
32611;SDS011;19030;49.478;8.986;2022-12-29T09:16:53;5.82;;;3.00;;
32611;SDS011;19030;49.478;8.986;2022-12-29T09:19:12;5.50;;;3.00;;
32611;SDS011;19030;49.478;8.986;2022-12-29T09:21:13;8.60;;;3.70;;
32611;SDS011;19030;49.478;8.986;2022-12-29T09:23:13;6.65;;;3.33;;
32611;SDS011;19030;49.478;8.986;2022-12-29T09:25:14;5.57;;;2.78;;
32611;SDS011;19030;49.478;8.986;2022-12-29T09:27:15;9.20;;;3.10;;
32611;SDS011;19030;49.478;8.986;2022-12-29T09:29:16;9.80;;;3.40;;
32611;SDS011;19030;49.478;8.986;2022-12-29T09:31:16;5.75;;;3.38;;
32611;SDS011;19030;49.478;8.986;2022-12-29T09:33:17;4.72;;;2.70;;
32611;SDS011;19030;49.478;8.986;2022-12-29T09:35:18;6.60;;;2.97;;
32611;SDS011;19030;49.478;8.986;2022-12-29T09:37:19;6.55;;;2.90;;
32611;SDS011;19030;49.478;8.986;2022-12-29T09:39:19;6.80;;;3.17;;
32611;SDS011;19030;49.478;8.986;2022-12-29T09:41:21;7.47;;;3.25;;
32611;SDS011;19030;49.478;8.986;2022-12-29T09:48:03;7.72;;;3.20;;
32611;SDS011;19030;49.478;8.986;2022-12-29T09:50:20;8.75;;;3.45;;
32611;SDS011;19030;49.478;8.986;2022-12-29T09:52:35;8.80;;;4.15;;
32611;SDS011;19030;49.478;8.986;2022-12-29T09:55:04;8.73;;;3.30;;
32611;SDS011;19030;49.478;8.986;2022-12-29T09:57:20;11.38;;;3.92;;
32611;SDS011;19030;49.478;8.986;2022-12-29T09:59:39;7.07;;;2.88;;
32611;SDS011;19030;49.478;8.986;2022-12-29T10:01:44;5.95;;;3.15;;
32611;SDS011;19030;49.478;8.986;2022-12-29T10:03:52;6.85;;;3.30;;
32611;SDS011;19030;49.478;8.986;2022-12-29T10:10:27;9.20;;;3.55;;
32611;SDS011;19030;49.478;8.986;2022-12-29T10:15:02;8.82;;;5.18;;
32611;SDS011;19030;49.478;8.986;2022-12-29T10:17:36;9.32;;;3.20;;
32611;SDS011;19030;49.478;8.986;2022-12-29T10:22:02;6.13;;;3.20;;
32611;SDS011;19030;49.478;8.986;2022-12-29T10:24:04;8.18;;;3.35;;
32611;SDS011;19030;49.478;8.986;2022-12-29T10:26:18;6.78;;;2.70;;
32611;SDS011;19030;49.478;8.986;2022-12-29T10:28:31;8.15;;;2.75;;
32611;SDS011;19030;49.478;8.986;2022-12-29T10:30:34;7.85;;;3.17;;
32611;SDS011;19030;49.478;8.986;2022-12-29T10:32:49;8.35;;;3.10;;
32611;SDS011;19030;49.478;8.986;2022-12-29T10:34:55;5.80;;;2.70;;
32611;SDS011;19030;49.478;8.986;2022-12-29T10:37:16;11.80;;;3.47;;
32611;SDS011;19030;49.478;8.986;2022-12-29T10:39:46;9.23;;;2.90;;
32611;SDS011;19030;49.478;8.986;2022-12-29T10:41:55;6.88;;;3.00;;
32611;SDS011;19030;49.478;8.986;2022-12-29T10:43:58;11.55;;;3.20;;
32611;SDS011;19030;49.478;8.986;2022-12-29T10:46:02;8.38;;;3.35;;
32611;SDS011;19030;49.478;8.986;2022-12-29T10:48:09;7.10;;;3.17;;
32611;SDS011;19030;49.478;8.986;2022-12-29T10:50:19;7.82;;;3.03;;
32611;SDS011;19030;49.478;8.986;2022-12-29T10:52:20;9.20;;;3.05;;
32611;SDS011;19030;49.478;8.986;2022-12-29T10:54:26;13.23;;;3.45;;
32611;SDS011;19030;49.478;8.986;2022-12-29T10:56:34;7.00;;;2.92;;
32611;SDS011;19030;49.478;8.986;2022-12-29T10:58:44;7.95;;;3.03;;
32611;SDS011;19030;49.478;8.986;2022-12-29T11:00:49;6.95;;;2.80;;
32611;SDS011;19030;49.478;8.986;2022-12-29T11:03:07;9.55;;;2.70;;
32611;SDS011;19030;49.478;8.986;2022-12-29T11:07:51;5.25;;;2.90;;
32611;SDS011;19030;49.478;8.986;2022-12-29T11:10:15;6.00;;;2.88;;
32611;SDS011;19030;49.478;8.986;2022-12-29T11:12:34;8.32;;;2.78;;
32611;SDS011;19030;49.478;8.986;2022-12-29T11:14:36;6.68;;;2.80;;
32611;SDS011;19030;49.478;8.986;2022-12-29T11:16:37;8.85;;;2.97;;
32611;SDS011;19030;49.478;8.986;2022-12-29T11:18:37;7.30;;;2.80;;
32611;SDS011;19030;49.478;8.986;2022-12-29T11:20:40;7.38;;;3.10;;
32611;SDS011;19030;49.478;8.986;2022-12-29T11:22:43;8.50;;;3.15;;
32611;SDS011;19030;49.478;8.986;2022-12-29T11:24:45;4.13;;;2.42;;
32611;SDS011;19030;49.478;8.986;2022-12-29T11:26:48;7.57;;;3.00;;
32611;SDS011;19030;49.478;8.986;2022-12-29T11:29:36;5.43;;;2.65;;
32611;SDS011;19030;49.478;8.986;2022-12-29T11:31:17;6.28;;;3.00;;
32611;SDS011;19030;49.478;8.986;2022-12-29T11:33:21;7.82;;;4.18;;
32611;SDS011;19030;49.478;8.986;2022-12-29T11:37:43;7.88;;;3.63;;
32611;SDS011;19030;49.478;8.986;2022-12-29T11:42:31;7.13;;;3.15;;
32611;SDS011;19030;49.478;8.986;2022-12-29T11:44:47;5.88;;;3.20;;
32611;SDS011;19030;49.478;8.986;2022-12-29T11:46:49;7.85;;;2.97;;
32611;SDS011;19030;49.478;8.986;2022-12-29T11:48:52;5.20;;;2.70;;
32611;SDS011;19030;49.478;8.986;2022-12-29T11:50:53;5.38;;;2.88;;
32611;SDS011;19030;49.478;8.986;2022-12-29T11:55:21;4.57;;;2.80;;
32611;SDS011;19030;49.478;8.986;2022-12-29T11:57:24;5.35;;;2.35;;
32611;SDS011;19030;49.478;8.986;2022-12-29T12:01:36;4.43;;;2.53;;
32611;SDS011;19030;49.478;8.986;2022-12-29T12:03:40;5.03;;;2.47;;
32611;SDS011;19030;49.478;8.986;2022-12-29T12:06:02;7.72;;;2.80;;
32611;SDS011;19030;49.478;8.986;2022-12-29T12:08:28;5.20;;;2.77;;
32611;SDS011;19030;49.478;8.986;2022-12-29T12:10:50;4.20;;;2.35;;
32611;SDS011;19030;49.478;8.986;2022-12-29T12:13:00;7.03;;;2.53;;
32611;SDS011;19030;49.478;8.986;2022-12-29T12:15:05;3.83;;;2.28;;
32611;SDS011;19030;49.478;8.986;2022-12-29T12:21:58;6.40;;;2.80;;
32611;SDS011;19030;49.478;8.986;2022-12-29T12:26:35;5.05;;;2.38;;
32611;SDS011;19030;49.478;8.986;2022-12-29T12:29:03;6.40;;;2.50;;
32611;SDS011;19030;49.478;8.986;2022-12-29T12:31:17;4.57;;;2.00;;
32611;SDS011;19030;49.478;8.986;2022-12-29T12:40:34;3.72;;;1.92;;
32611;SDS011;19030;49.478;8.986;2022-12-29T12:52:23;6.93;;;2.20;;
32611;SDS011;19030;49.478;8.986;2022-12-29T12:54:51;5.47;;;1.85;;
32611;SDS011;19030;49.478;8.986;2022-12-29T12:59:33;5.90;;;1.88;;
32611;SDS011;19030;49.478;8.986;2022-12-29T13:01:54;3.20;;;1.83;;
32611;SDS011;19030;49.478;8.986;2022-12-29T13:04:38;4.72;;;1.88;;
32611;SDS011;19030;49.478;8.986;2022-12-29T13:16:04;6.57;;;3.10;;
32611;SDS011;19030;49.478;8.986;2022-12-29T13:20:35;5.28;;;1.85;;
32611;SDS011;19030;49.478;8.986;2022-12-29T13:23:00;3.53;;;1.58;;
32611;SDS011;19030;49.478;8.986;2022-12-29T13:27:17;5.47;;;2.20;;
32611;SDS011;19030;49.478;8.986;2022-12-29T13:29:42;7.43;;;2.33;;
32611;SDS011;19030;49.478;8.986;2022-12-29T13:32:17;6.82;;;2.13;;
32611;SDS011;19030;49.478;8.986;2022-12-29T13:37:12;7.22;;;3.47;;
32611;SDS011;19030;49.478;8.986;2022-12-29T13:39:18;7.57;;;2.95;;
32611;SDS011;19030;49.478;8.986;2022-12-29T13:43:54;8.73;;;3.00;;
32611;SDS011;19030;49.478;8.986;2022-12-29T13:46:02;7.78;;;3.30;;
32611;SDS011;19030;49.478;8.986;2022-12-29T13:48:22;11.15;;;5.72;;
32611;SDS011;19030;49.478;8.986;2022-12-29T13:50:31;6.90;;;2.40;;
32611;SDS011;19030;49.478;8.986;2022-12-29T13:52:39;12.63;;;3.83;;
32611;SDS011;19030;49.478;8.986;2022-12-29T13:55:18;12.45;;;4.28;;
32611;SDS011;19030;49.478;8.986;2022-12-29T13:57:37;9.43;;;4.00;;
32611;SDS011;19030;49.478;8.986;2022-12-29T14:01:56;9.63;;;2.90;;
32611;SDS011;19030;49.478;8.986;2022-12-29T14:04:11;7.35;;;2.45;;
32611;SDS011;19030;49.478;8.986;2022-12-29T14:06:15;5.93;;;2.28;;
32611;SDS011;19030;49.478;8.986;2022-12-29T14:08:26;6.00;;;2.10;;
32611;SDS011;19030;49.478;8.986;2022-12-29T14:12:39;7.53;;;2.03;;
32611;SDS011;19030;49.478;8.986;2022-12-29T14:16:42;5.70;;;1.80;;
32611;SDS011;19030;49.478;8.986;2022-12-29T14:18:43;2.88;;;1.65;;
32611;SDS011;19030;49.478;8.986;2022-12-29T14:23:14;3.63;;;1.50;;
32611;SDS011;19030;49.478;8.986;2022-12-29T14:27:55;2.60;;;1.40;;
32611;SDS011;19030;49.478;8.986;2022-12-29T14:29:56;5.07;;;2.20;;
32611;SDS011;19030;49.478;8.986;2022-12-29T14:31:56;5.10;;;1.67;;
32611;SDS011;19030;49.478;8.986;2022-12-29T14:36:26;12.07;;;3.83;;
32611;SDS011;19030;49.478;8.986;2022-12-29T14:38:34;9.07;;;3.80;;
32611;SDS011;19030;49.478;8.986;2022-12-29T14:40:45;14.85;;;6.68;;